Time;durP1;ratioP1;P1;durP2;ratioP2;P2;SDS_P1;SDS_P2;PMS_P1;PMS_P2;Temp;Humidity;BMP_temperature;BMP_pressure;BME280_temperature;BME280_humidity;BME280_pressure;Samples;Min_cycle;Max_cycle;Signal;HPM_P1;HPM_P2
2022/05/24 00:01:38;;;;;;;7.88;3.88;;;;;;;;;;5054744;28;20024;-63
2022/05/24 00:04:03;;;;;;;7.80;4.00;;;;;;;;;;5062868;28;20029;-63
2022/05/24 00:06:31;;;;;;;15.70;4.15;;;;;;;;;;5057062;28;20051;-64
2022/05/24 00:08:57;;;;;;;11.10;4.30;;;;;;;;;;5065930;28;20087;-63
2022/05/24 00:11:23;;;;;;;11.90;4.80;;;;;;;;;;5067184;28;20043;-64
2022/05/24 00:13:49;;;;;;;10.52;3.70;;;;;;;;;;5065870;28;20029;-63
2022/05/24 00:16:14;;;;;;;8.88;3.50;;;;;;;;;;5053477;28;20036;-63
2022/05/24 00:18:40;;;;;;;9.23;2.88;;;;;;;;;;5067840;28;20424;-63
2022/05/24 00:21:07;;;;;;;3.55;2.72;;;;;;;;;;5059473;28;20082;-63
2022/05/24 00:23:33;;;;;;;4.93;2.70;;;;;;;;;;5058359;28;20041;-64
2022/05/24 00:26:02;;;;;;;10.05;2.67;;;;;;;;;;5070635;28;20543;-63
2022/05/24 00:28:30;;;;;;;4.90;2.55;;;;;;;;;;5058393;28;20108;-63
2022/05/24 00:30:56;;;;;;;9.48;2.75;;;;;;;;;;5062782;28;20024;-63
2022/05/24 00:33:22;;;;;;;8.57;2.80;;;;;;;;;;5062390;28;20040;-63
2022/05/24 00:35:49;;;;;;;5.72;2.60;;;;;;;;;;5047930;28;22208;-63
2022/05/24 00:38:23;;;;;;;10.75;3.28;;;;;;;;;;5062949;28;20515;-63
2022/05/24 00:41:05;;;;;;;11.85;2.70;;;;;;;;;;5062759;28;20047;-63
2022/05/24 00:43:35;;;;;;;5.10;2.65;;;;;;;;;;5063057;28;20041;-63
2022/05/24 00:46:22;;;;;;;7.22;2.25;;;;;;;;;;5056068;28;20043;-63
2022/05/24 00:49:04;;;;;;;8.95;2.17;;;;;;;;;;5064199;28;20127;-63
2022/05/24 00:51:43;;;;;;;4.53;1.90;;;;;;;;;;5056556;28;20056;-63
2022/05/24 00:54:09;;;;;;;8.43;2.72;;;;;;;;;;5060385;28;20409;-63
2022/05/24 00:56:52;;;;;;;8.38;2.05;;;;;;;;;;5062533;28;20036;-63
2022/05/24 00:59:40;;;;;;;6.28;2.60;;;;;;;;;;5056315;28;20048;-63
2022/05/24 01:02:06;;;;;;;4.97;1.63;;;;;;;;;;5058305;28;20477;-63
2022/05/24 01:04:32;;;;;;;6.35;1.73;;;;;;;;;;5070021;28;20166;-63
2022/05/24 01:06:58;;;;;;;3.40;1.80;;;;;;;;;;5064151;28;20117;-63
2022/05/24 01:09:49;;;;;;;4.78;1.65;;;;;;;;;;5064724;28;20094;-63
2022/05/24 01:12:21;;;;;;;5.20;1.83;;;;;;;;;;5057399;28;20185;-63
2022/05/24 01:14:47;;;;;;;4.93;1.90;;;;;;;;;;5058491;28;20041;-63
2022/05/24 01:17:13;;;;;;;7.18;1.80;;;;;;;;;;5060820;28;20036;-63
2022/05/24 01:19:45;;;;;;;6.65;1.50;;;;;;;;;;5069704;28;20108;-63
2022/05/24 01:22:31;;;;;;;10.40;1.58;;;;;;;;;;5061365;28;20480;-63
2022/05/24 01:25:04;;;;;;;2.97;1.40;;;;;;;;;;5060340;28;20524;-63
2022/05/24 01:27:30;;;;;;;5.18;1.83;;;;;;;;;;5057449;28;20017;-63
2022/05/24 01:29:56;;;;;;;4.05;1.42;;;;;;;;;;5060190;28;20028;-63
2022/05/24 01:37:52;;;;;;;1.77;1.25;;;;;;;;;;5053255;28;20040;-63
2022/05/24 01:40:18;;;;;;;6.78;1.92;;;;;;;;;;5054275;28;20037;-63
2022/05/24 01:42:44;;;;;;;4.72;1.55;;;;;;;;;;5061666;28;20040;-64
2022/05/24 01:45:21;;;;;;;7.35;1.65;;;;;;;;;;5061062;28;20016;-63
2022/05/24 01:47:49;;;;;;;7.10;1.50;;;;;;;;;;5058757;28;20032;-63
2022/05/24 01:50:17;;;;;;;3.50;1.45;;;;;;;;;;5057307;28;20060;-62
2022/05/24 01:52:56;;;;;;;5.25;1.48;;;;;;;;;;5060604;28;20033;-63
2022/05/24 01:55:37;;;;;;;4.63;1.90;;;;;;;;;;5059628;28;20052;-62
2022/05/24 01:58:08;;;;;;;2.75;1.63;;;;;;;;;;5068988;28;20044;-58
2022/05/24 02:00:34;;;;;;;8.65;2.13;;;;;;;;;;5062475;28;20537;-62
2022/05/24 02:02:59;;;;;;;7.55;1.42;;;;;;;;;;5057645;28;20037;-63
2022/05/24 02:05:39;;;;;;;4.60;1.38;;;;;;;;;;5062751;28;20472;-62
2022/05/24 02:08:07;;;;;;;6.25;1.38;;;;;;;;;;5052875;28;20025;-63
2022/05/24 02:10:43;;;;;;;2.78;1.10;;;;;;;;;;5056899;28;20574;-62
2022/05/24 02:13:10;;;;;;;2.25;1.10;;;;;;;;;;5063968;28;20392;-62
2022/05/24 02:15:39;;;;;;;7.25;1.30;;;;;;;;;;5062980;28;20039;-62
2022/05/24 02:18:13;;;;;;;3.05;1.30;;;;;;;;;;5054950;28;20052;-62
2022/05/24 02:20:42;;;;;;;3.33;1.20;;;;;;;;;;5060859;28;20024;-62
2022/05/24 02:23:10;;;;;;;4.20;1.73;;;;;;;;;;5070567;28;20059;-62
2022/05/24 02:25:56;;;;;;;3.03;1.50;;;;;;;;;;5054132;28;20032;-62
2022/05/24 02:28:29;;;;;;;5.88;1.65;;;;;;;;;;5063348;28;20051;-63
2022/05/24 02:31:01;;;;;;;5.10;1.77;;;;;;;;;;5052034;28;20040;-62
2022/05/24 02:33:27;;;;;;;;;;;;;;;;;;5059804;28;20120;-62
2022/05/24 02:35:53;;;;;;;7.40;1.73;;;;;;;;;;5065375;28;20428;-62
2022/05/24 02:38:19;;;;;;;2.00;1.13;;;;;;;;;;5060553;28;20063;-63
2022/05/24 02:43:29;;;;;;;3.03;1.13;;;;;;;;;;5053639;28;20033;-63
2022/05/24 02:45:55;;;;;;;5.47;1.58;;;;;;;;;;5064287;28;20449;-63
2022/05/24 02:48:21;;;;;;;1.60;1.10;;;;;;;;;;5065844;28;20062;-63
2022/05/24 02:50:47;;;;;;;8.07;2.28;;;;;;;;;;5062138;28;20056;-62
2022/05/24 02:53:13;;;;;;;3.05;1.27;;;;;;;;;;5062420;28;20056;-62
2022/05/24 02:55:39;;;;;;;3.03;1.10;;;;;;;;;;5052924;28;20044;-63
2022/05/24 02:58:05;;;;;;;4.65;1.30;;;;;;;;;;5071463;28;20024;-63
2022/05/24 03:00:31;;;;;;;4.60;1.52;;;;;;;;;;5059425;28;20036;-63
2022/05/24 03:02:57;;;;;;;7.53;1.30;;;;;;;;;;5061957;28;20029;-63
2022/05/24 03:05:24;;;;;;;6.20;1.20;;;;;;;;;;5046340;28;20470;-63
2022/05/24 03:10:34;;;;;;;3.50;1.10;;;;;;;;;;5053421;28;20466;-62
2022/05/24 03:15:46;;;;;;;4.00;1.10;;;;;;;;;;5055540;28;20124;-63
2022/05/24 03:18:14;;;;;;;3.28;1.20;;;;;;;;;;5057499;28;20028;-62
2022/05/24 03:20:41;;;;;;;2.65;1.30;;;;;;;;;;5058649;28;20074;-62
2022/05/24 03:23:07;;;;;;;2.00;1.40;;;;;;;;;;5060570;28;20046;-62
2022/05/24 03:25:34;;;;;;;3.92;1.30;;;;;;;;;;5062507;28;20033;-62
2022/05/24 03:28:01;;;;;;;1.73;1.17;;;;;;;;;;5055510;28;20427;-62
2022/05/24 03:30:27;;;;;;;2.10;1.30;;;;;;;;;;5061217;28;20814;-62
2022/05/24 03:32:53;;;;;;;4.28;1.27;;;;;;;;;;5059598;28;20127;-63
2022/05/24 03:35:20;;;;;;;3.50;1.00;;;;;;;;;;5057119;28;20037;-60
2022/05/24 03:37:46;;;;;;;3.95;1.30;;;;;;;;;;5058174;28;20051;-62
2022/05/24 03:40:12;;;;;;;2.25;1.00;;;;;;;;;;5069627;28;20480;-62
2022/05/24 03:42:38;;;;;;;4.70;1.50;;;;;;;;;;5051396;28;20025;-61
2022/05/24 03:45:06;;;;;;;7.50;1.98;;;;;;;;;;5058310;28;20085;-63
2022/05/24 03:47:32;;;;;;;2.85;1.30;;;;;;;;;;5056224;28;20028;-62
2022/05/24 03:49:58;;;;;;;2.67;1.25;;;;;;;;;;5051395;28;20385;-62
2022/05/24 03:52:24;;;;;;;2.63;1.23;;;;;;;;;;5056242;28;20091;-62
2022/05/24 03:54:50;;;;;;;3.78;1.00;;;;;;;;;;5045676;28;20558;-62
2022/05/24 04:00:00;;;;;;;4.95;1.63;;;;;;;;;;5063095;28;20028;-62
2022/05/24 04:02:27;;;;;;;7.60;1.30;;;;;;;;;;5058628;28;20039;-62
2022/05/24 04:04:53;;;;;;;2.53;1.00;;;;;;;;;;5056031;28;22640;-62
2022/05/24 04:07:18;;;;;;;3.30;0.95;;;;;;;;;;5055910;28;20048;-62
2022/05/24 04:09:45;;;;;;;1.42;1.25;;;;;;;;;;5058921;28;20055;-62
2022/05/24 04:12:11;;;;;;;4.22;1.20;;;;;;;;;;5053469;28;20036;-62
2022/05/24 04:14:36;;;;;;;4.60;1.10;;;;;;;;;;5058484;28;20055;-62
2022/05/24 04:17:02;;;;;;;2.88;0.93;;;;;;;;;;5064284;28;20044;-62
2022/05/24 04:19:28;;;;;;;2.58;0.98;;;;;;;;;;5060613;28;20021;-63
2022/05/24 04:21:54;;;;;;;3.10;1.10;;;;;;;;;;5055511;28;20028;-62
2022/05/24 04:24:20;;;;;;;5.00;1.10;;;;;;;;;;5065054;28;20024;-62
2022/05/24 04:26:47;;;;;;;4.55;1.63;;;;;;;;;;5068027;28;20024;-62
2022/05/24 04:29:14;;;;;;;4.35;1.35;;;;;;;;;;5061359;28;20066;-62
2022/05/24 04:31:40;;;;;;;6.50;1.30;;;;;;;;;;5073083;28;20032;-62
2022/05/24 04:34:06;;;;;;;4.32;1.20;;;;;;;;;;5061346;28;20223;-62
2022/05/24 04:36:32;;;;;;;3.22;0.93;;;;;;;;;;5054575;28;20149;-62
2022/05/24 04:38:58;;;;;;;2.83;1.23;;;;;;;;;;5060063;28;20044;-62
2022/05/24 04:44:09;;;;;;;1.80;1.08;;;;;;;;;;5054335;28;20436;-62
2022/05/24 04:49:22;;;;;;;2.85;1.00;;;;;;;;;;5057242;28;20029;-62
2022/05/24 04:51:48;;;;;;;1.05;0.88;;;;;;;;;;5054537;28;20484;-62
2022/05/24 04:54:14;;;;;;;2.70;1.50;;;;;;;;;;5055391;28;20079;-62
2022/05/24 04:56:40;;;;;;;4.63;1.48;;;;;;;;;;5060417;28;20110;-62
2022/05/24 04:59:05;;;;;;;5.53;1.25;;;;;;;;;;5060483;28;20055;-62
2022/05/24 05:01:31;;;;;;;6.28;1.15;;;;;;;;;;5055975;28;20021;-62
2022/05/24 05:03:57;;;;;;;4.80;1.40;;;;;;;;;;5063607;28;20431;-62
2022/05/24 05:06:22;;;;;;;5.80;1.63;;;;;;;;;;5059066;28;20024;-62
2022/05/24 05:08:48;;;;;;;6.80;1.48;;;;;;;;;;5069479;28;20036;-62
2022/05/24 05:11:14;;;;;;;7.80;1.52;;;;;;;;;;5066194;28;20107;-62
2022/05/24 05:13:39;;;;;;;5.05;1.17;;;;;;;;;;5060495;28;20119;-62
2022/05/24 05:16:05;;;;;;;4.68;1.23;;;;;;;;;;5064627;28;20459;-61
2022/05/24 05:18:31;;;;;;;3.65;1.25;;;;;;;;;;5060906;28;20028;-62
2022/05/24 05:20:58;;;;;;;3.17;1.20;;;;;;;;;;5072702;28;20081;-62
2022/05/24 05:23:24;;;;;;;2.42;1.00;;;;;;;;;;5066917;28;20032;-62
2022/05/24 05:25:50;;;;;;;7.38;1.40;;;;;;;;;;5062733;28;20384;-62
2022/05/24 05:28:18;;;;;;;3.50;0.98;;;;;;;;;;5063027;28;20032;-62
2022/05/24 05:33:28;;;;;;;2.67;1.00;;;;;;;;;;5069550;28;20573;-62
2022/05/24 05:35:54;;;;;;;4.45;1.10;;;;;;;;;;5066119;28;20052;-61
2022/05/24 05:38:20;;;;;;;3.45;1.05;;;;;;;;;;5058865;28;20369;-62
2022/05/24 05:40:48;;;;;;;2.17;0.68;;;;;;;;;;5050196;28;20031;-62
2022/05/24 05:43:14;;;;;;;3.80;1.00;;;;;;;;;;5060617;28;20056;-62
2022/05/24 05:45:40;;;;;;;4.60;1.00;;;;;;;;;;5056121;28;20056;-62
2022/05/24 05:48:06;;;;;;;5.22;1.17;;;;;;;;;;5064417;28;20070;-62
2022/05/24 05:50:32;;;;;;;7.13;1.60;;;;;;;;;;5057067;28;20492;-62
2022/05/24 05:52:58;;;;;;;4.72;1.20;;;;;;;;;;5061460;28;20071;-62
2022/05/24 05:55:25;;;;;;;8.88;1.60;;;;;;;;;;5063165;28;20055;-62
2022/05/24 05:57:51;;;;;;;4.38;1.10;;;;;;;;;;5060837;28;20025;-62
2022/05/24 06:00:17;;;;;;;5.75;1.30;;;;;;;;;;5062570;28;20434;-61
2022/05/24 06:02:43;;;;;;;3.83;1.00;;;;;;;;;;5059633;28;20442;-61
2022/05/24 06:05:10;;;;;;;3.08;0.90;;;;;;;;;;5059473;28;20043;-62
2022/05/24 06:07:37;;;;;;;2.67;0.98;;;;;;;;;;5052514;28;20048;-62
2022/05/24 06:10:06;;;;;;;4.18;1.40;;;;;;;;;;5076685;28;20021;-61
2022/05/24 06:12:31;;;;;;;5.53;1.33;;;;;;;;;;5059118;28;21943;-62
2022/05/24 06:14:57;;;;;;;1.88;1.23;;;;;;;;;;5060452;28;20500;-62
2022/05/24 06:17:23;;;;;;;3.92;1.27;;;;;;;;;;5060217;28;20029;-61
2022/05/24 06:19:49;;;;;;;1.88;1.33;;;;;;;;;;5057506;28;20677;-61
2022/05/24 06:22:14;;;;;;;2.80;1.05;;;;;;;;;;5065223;28;20055;-62
2022/05/24 06:24:40;;;;;;;4.13;1.00;;;;;;;;;;5055712;28;20052;-61
2022/05/24 06:27:06;;;;;;;2.88;1.65;;;;;;;;;;5059673;28;20108;-62
2022/05/24 06:29:36;;;;;;;5.43;1.20;;;;;;;;;;5058572;28;20028;-62
2022/05/24 06:32:03;;;;;;;6.65;2.05;;;;;;;;;;5061992;28;20051;-61
2022/05/24 06:34:32;;;;;;;7.18;1.80;;;;;;;;;;5058522;28;20038;-62
2022/05/24 06:36:58;;;;;;;7.22;0.90;;;;;;;;;;5052582;28;20441;-62
2022/05/24 06:39:24;;;;;;;5.00;1.40;;;;;;;;;;5058465;28;20033;-61
2022/05/24 06:41:50;;;;;;;4.82;1.50;;;;;;;;;;5069957;28;20094;-62
2022/05/24 06:44:15;;;;;;;5.03;1.27;;;;;;;;;;5062767;28;20028;-62
2022/05/24 06:46:41;;;;;;;6.35;1.08;;;;;;;;;;5054166;28;20029;-61
2022/05/24 06:49:08;;;;;;;14.38;1.38;;;;;;;;;;5054947;28;20117;-62
2022/05/24 06:51:34;;;;;;;7.15;1.17;;;;;;;;;;5063603;28;20497;-62
2022/05/24 06:54:00;;;;;;;2.17;1.08;;;;;;;;;;5054235;28;20051;-62
2022/05/24 06:56:25;;;;;;;4.03;0.90;;;;;;;;;;5053783;28;20037;-61
2022/05/24 07:02:25;;;;;;;2.60;1.27;;;;;;;;;;5060830;28;20046;-62
2022/05/24 07:04:25;;;;;;;2.22;1.10;;;;;;;;;;5056798;28;20075;-62
2022/05/24 07:06:50;;;;;;;3.50;0.90;;;;;;;;;;5059326;28;20072;-62
2022/05/24 07:09:16;;;;;;;3.65;0.98;;;;;;;;;;5051107;28;20057;-62
2022/05/24 07:11:42;;;;;;;4.10;0.80;;;;;;;;;;5056705;28;20039;-62
2022/05/24 07:14:08;;;;;;;4.40;1.23;;;;;;;;;;5053694;28;20473;-62
2022/05/24 07:16:33;;;;;;;4.97;1.30;;;;;;;;;;5057784;28;20035;-62
2022/05/24 07:18:59;;;;;;;4.72;1.63;;;;;;;;;;5059093;28;20035;-62
2022/05/24 07:21:25;;;;;;;2.50;0.65;;;;;;;;;;5053493;28;20053;-62
2022/05/24 07:23:51;;;;;;;2.80;1.10;;;;;;;;;;5060588;28;20024;-62
2022/05/24 07:26:21;;;;;;;3.40;1.20;;;;;;;;;;5060812;28;20110;-62
2022/05/24 07:28:47;;;;;;;3.15;1.20;;;;;;;;;;5059330;28;20032;-62
2022/05/24 07:31:13;;;;;;;6.18;1.15;;;;;;;;;;5060875;28;20025;-62
2022/05/24 07:33:39;;;;;;;2.47;1.05;;;;;;;;;;5060209;28;20875;-61
2022/05/24 07:36:06;;;;;;;6.13;1.17;;;;;;;;;;5054715;28;20155;-62
2022/05/24 07:38:32;;;;;;;7.07;1.10;;;;;;;;;;5056012;28;20081;-62
2022/05/24 07:46:28;;;;;;;2.33;0.73;;;;;;;;;;5059464;28;20154;-61
2022/05/24 07:48:54;;;;;;;7.10;0.80;;;;;;;;;;5056132;28;20104;-61
2022/05/24 07:51:20;;;;;;;3.75;1.35;;;;;;;;;;5057943;28;20032;-62
2022/05/24 07:53:46;;;;;;;10.75;1.17;;;;;;;;;;5057658;28;20041;-62
2022/05/24 07:56:15;;;;;;;3.17;1.10;;;;;;;;;;5059732;28;20055;-61
2022/05/24 07:58:45;;;;;;;5.13;1.50;;;;;;;;;;5057357;28;20036;-62
2022/05/24 08:01:11;;;;;;;5.07;1.05;;;;;;;;;;5057117;28;20044;-62
2022/05/24 08:03:38;;;;;;;4.32;1.00;;;;;;;;;;5065861;28;20064;-62
2022/05/24 08:06:05;;;;;;;4.40;0.90;;;;;;;;;;5066336;28;20077;-62
2022/05/24 08:08:31;;;;;;;6.38;1.10;;;;;;;;;;5063663;28;20025;-62
2022/05/24 08:10:57;;;;;;;2.40;1.15;;;;;;;;;;5068714;28;20104;-62
2022/05/24 08:13:22;;;;;;;8.57;1.20;;;;;;;;;;5060291;28;20028;-62
2022/05/24 08:15:53;;;;;;;3.38;1.00;;;;;;;;;;5063276;28;20709;-62
2022/05/24 08:18:20;;;;;;;2.38;1.17;;;;;;;;;;5062097;28;20059;-62
2022/05/24 08:20:46;;;;;;;2.83;1.08;;;;;;;;;;5061170;28;20401;-62
2022/05/24 08:23:12;;;;;;;4.38;1.15;;;;;;;;;;5055025;28;20072;-62
2022/05/24 08:25:38;;;;;;;3.03;1.05;;;;;;;;;;5064787;28;20538;-62
2022/05/24 08:28:07;;;;;;;2.42;0.70;;;;;;;;;;5061730;28;20036;-62
2022/05/24 08:30:35;;;;;;;3.50;0.95;;;;;;;;;;5060001;28;20035;-62
2022/05/24 08:33:04;;;;;;;3.88;1.17;;;;;;;;;;5060368;28;20032;-62
2022/05/24 08:35:32;;;;;;;6.00;1.00;;;;;;;;;;5058408;28;20028;-62
2022/05/24 08:37:59;;;;;;;12.32;1.85;;;;;;;;;;5059641;28;20036;-62
2022/05/24 08:40:25;;;;;;;2.75;1.10;;;;;;;;;;5057781;28;20362;-62
2022/05/24 08:42:53;;;;;;;3.22;1.40;;;;;;;;;;5058829;28;20146;-62
2022/05/24 08:48:36;;;;;;;4.47;0.95;;;;;;;;;;5062067;28;20059;-64
2022/05/24 08:51:20;;;;;;;8.75;1.60;;;;;;;;;;5053845;28;20421;-62
2022/05/24 08:53:50;;;;;;;5.65;1.42;;;;;;;;;;5064189;28;20033;-62
2022/05/24 08:56:19;;;;;;;7.60;1.63;;;;;;;;;;5061915;28;20612;-63
2022/05/24 08:58:54;;;;;;;8.18;1.13;;;;;;;;;;5067061;28;20056;-62
2022/05/24 09:01:32;;;;;;;9.20;1.42;;;;;;;;;;5060738;28;20567;-62
2022/05/24 09:04:05;;;;;;;2.63;1.08;;;;;;;;;;5064779;28;20513;-61
2022/05/24 09:06:40;;;;;;;4.05;0.98;;;;;;;;;;5051159;28;20061;-62
2022/05/24 09:09:39;;;;;;;10.15;1.42;;;;;;;;;;5061880;28;20052;-63
2022/05/24 09:12:19;;;;;;;4.65;1.10;;;;;;;;;;5064769;28;20024;-63
2022/05/24 09:15:09;;;;;;;1.85;1.20;;;;;;;;;;5057103;28;20029;-63
2022/05/24 09:17:48;;;;;;;6.75;1.17;;;;;;;;;;5053450;28;20068;-63
2022/05/24 09:20:39;;;;;;;4.88;1.20;;;;;;;;;;5059816;28;20064;-63
2022/05/24 09:23:22;;;;;;;5.05;0.88;;;;;;;;;;5059274;28;20044;-62
2022/05/24 09:26:04;;;;;;;4.07;1.08;;;;;;;;;;5065261;28;20040;-62
2022/05/24 09:28:51;;;;;;;10.48;1.27;;;;;;;;;;5067445;28;20036;-63
2022/05/24 09:31:43;;;;;;;4.78;0.75;;;;;;;;;;5068123;28;20039;-63
2022/05/24 09:34:17;;;;;;;3.95;0.95;;;;;;;;;;5058108;28;20068;-63
2022/05/24 09:36:58;;;;;;;4.13;1.13;;;;;;;;;;5048216;28;20104;-62
2022/05/24 09:39:31;;;;;;;7.05;1.52;;;;;;;;;;5064554;28;20020;-62
2022/05/24 09:42:01;;;;;;;6.97;1.15;;;;;;;;;;5057793;28;20151;-62
2022/05/24 09:44:41;;;;;;;4.22;1.20;;;;;;;;;;5062877;28;20040;-62
2022/05/24 09:47:22;;;;;;;2.72;0.95;;;;;;;;;;5054720;28;20024;-63
2022/05/24 09:49:49;;;;;;;4.22;1.00;;;;;;;;;;5056343;28;20051;-63
2022/05/24 09:52:15;;;;;;;1.73;0.65;;;;;;;;;;5070207;28;20031;-63
2022/05/24 09:54:58;;;;;;;6.22;0.88;;;;;;;;;;5055026;28;20053;-62
2022/05/24 09:57:27;;;;;;;12.07;1.13;;;;;;;;;;5055455;28;20025;-63
2022/05/24 10:00:25;;;;;;;12.32;0.90;;;;;;;;;;5065549;28;20031;-62
2022/05/24 10:03:05;;;;;;;10.80;1.10;;;;;;;;;;5006579;28;20037;-63
2022/05/24 10:05:31;;;;;;;8.35;1.10;;;;;;;;;;5001319;28;20053;-62
2022/05/24 10:08:07;;;;;;;5.43;1.00;;;;;;;;;;5002948;28;20028;-63
2022/05/24 10:10:40;;;;;;;6.55;0.82;;;;;;;;;;5003593;28;20040;-62
2022/05/24 10:13:19;;;;;;;6.50;1.02;;;;;;;;;;5007194;28;20092;-63
2022/05/24 10:16:03;;;;;;;3.03;1.27;;;;;;;;;;5011911;28;20072;-63
2022/05/24 10:18:56;;;;;;;2.45;0.70;;;;;;;;;;5003595;28;20210;-62
2022/05/24 10:21:29;;;;;;;3.08;0.70;;;;;;;;;;5001076;28;20490;-62
2022/05/24 10:23:57;;;;;;;1.85;0.90;;;;;;;;;;5005091;28;20050;-62
2022/05/24 10:27:01;;;;;;;2.92;0.90;;;;;;;;;;5004704;28;20072;-62
2022/05/24 10:29:52;;;;;;;5.93;0.70;;;;;;;;;;5001795;28;20033;-62
2022/05/24 10:39:11;;;;;;;1.00;0.50;;;;;;;;;;5039628;28;20059;-62
2022/05/24 10:42:05;;;;;;;2.38;0.60;;;;;;;;;;5058001;28;20847;-62
2022/05/24 10:44:39;;;;;;;5.47;0.70;;;;;;;;;;5056941;28;20075;-63
2022/05/24 10:47:25;;;;;;;3.90;1.20;;;;;;;;;;5053417;28;20040;-62
2022/05/24 10:49:56;;;;;;;3.55;0.80;;;;;;;;;;5057457;28;20032;-63
2022/05/24 10:52:25;;;;;;;9.60;0.90;;;;;;;;;;5059635;28;20043;-63
2022/05/24 10:54:55;;;;;;;4.43;1.02;;;;;;;;;;5054882;28;20516;-63
2022/05/24 10:57:43;;;;;;;5.47;0.70;;;;;;;;;;5050725;28;20495;-62
2022/05/24 11:00:19;;;;;;;3.53;0.50;;;;;;;;;;5046750;28;20040;-64
2022/05/24 11:02:49;;;;;;;4.72;0.47;;;;;;;;;;5046109;28;20042;-63
2022/05/24 11:05:35;;;;;;;3.13;0.90;;;;;;;;;;5064117;28;20025;-62
2022/05/24 11:08:19;;;;;;;2.35;0.60;;;;;;;;;;5061628;28;20423;-62
2022/05/24 11:10:49;;;;;;;4.18;0.50;;;;;;;;;;5055636;28;20036;-62
2022/05/24 11:13:20;;;;;;;9.75;0.70;;;;;;;;;;5060635;28;20109;-62
2022/05/24 11:15:54;;;;;;;4.72;0.98;;;;;;;;;;5061464;28;20381;-62
2022/05/24 11:18:22;;;;;;;7.00;0.68;;;;;;;;;;5065257;28;20031;-62
2022/05/24 11:20:54;;;;;;;1.95;0.88;;;;;;;;;;5064916;28;20069;-63
2022/05/24 11:23:34;;;;;;;1.02;0.60;;;;;;;;;;5060655;28;20044;-62
2022/05/24 11:26:27;;;;;;;4.30;0.80;;;;;;;;;;5067324;28;20029;-62
2022/05/24 11:29:10;;;;;;;5.75;1.20;;;;;;;;;;5051894;28;20519;-62
2022/05/24 11:31:49;;;;;;;6.50;0.80;;;;;;;;;;5056936;28;20111;-62
2022/05/24 11:34:21;;;;;;;2.35;0.60;;;;;;;;;;5046373;28;20032;-62
2022/05/24 11:37:00;;;;;;;3.55;0.60;;;;;;;;;;5060374;28;20029;-62
2022/05/24 11:39:30;;;;;;;4.93;0.80;;;;;;;;;;5055531;28;20036;-62
2022/05/24 11:42:29;;;;;;;4.15;0.98;;;;;;;;;;5052595;28;20033;-62
2022/05/24 11:44:57;;;;;;;3.42;0.80;;;;;;;;;;5053324;28;20041;-62
2022/05/24 11:47:35;;;;;;;11.25;0.73;;;;;;;;;;5054291;28;20028;-62
2022/05/24 11:50:00;;;;;;;4.07;0.82;;;;;;;;;;5057247;28;20068;-62
2022/05/24 11:53:00;;;;;;;2.75;0.60;;;;;;;;;;5062723;28;20060;-62
2022/05/24 11:55:49;;;;;;;4.80;0.70;;;;;;;;;;5061325;28;20492;-63
2022/05/24 11:58:43;;;;;;;8.27;0.90;;;;;;;;;;5056738;28;20109;-62
2022/05/24 12:01:14;;;;;;;3.35;0.90;;;;;;;;;;5036872;28;20029;-62
2022/05/24 12:10:03;;;;;;;8.85;0.90;;;;;;;;;;5053090;28;20044;-62
2022/05/24 12:12:33;;;;;;;1.37;0.77;;;;;;;;;;5063762;28;20037;-62
2022/05/24 12:15:34;;;;;;;4.30;0.90;;;;;;;;;;5054493;28;20029;-63
2022/05/24 12:18:01;;;;;;;7.15;2.70;;;;;;;;;;5054303;28;20032;-62
2022/05/24 12:20:33;;;;;;;2.58;0.60;;;;;;;;;;5059669;28;20047;-62
2022/05/24 12:23:05;;;;;;;0.55;0.55;;;;;;;;;;5066801;28;20044;-62
2022/05/24 12:26:07;;;;;;;0.85;0.70;;;;;;;;;;5063202;28;20087;-62
2022/05/24 12:28:36;;;;;;;7.35;1.10;;;;;;;;;;5067878;28;20033;-62
2022/05/24 12:31:17;;;;;;;5.63;0.90;;;;;;;;;;5058305;28;20044;-62
2022/05/24 12:33:46;;;;;;;3.92;1.20;;;;;;;;;;5055445;28;20071;-62
2022/05/24 12:36:21;;;;;;;3.35;0.73;;;;;;;;;;5055946;28;20512;-62
2022/05/24 12:38:50;;;;;;;0.90;0.50;;;;;;;;;;5066412;28;20041;-62
2022/05/24 12:41:27;;;;;;;2.17;0.77;;;;;;;;;;5059432;28;20035;-62
2022/05/24 12:44:03;;;;;;;1.58;0.93;;;;;;;;;;5059387;28;20435;-62
2022/05/24 12:46:33;;;;;;;1.52;0.40;;;;;;;;;;5056742;28;20044;-63
2022/05/24 12:49:15;;;;;;;1.42;0.60;;;;;;;;;;5070459;28;20043;-62
2022/05/24 12:51:41;;;;;;;1.08;0.85;;;;;;;;;;5059280;28;20057;-62
2022/05/24 12:54:14;;;;;;;4.00;0.52;;;;;;;;;;5057425;28;20048;-62
2022/05/24 12:56:51;;;;;;;0.60;0.50;;;;;;;;;;5065217;28;20029;-62
2022/05/24 12:59:16;;;;;;;9.02;0.70;;;;;;;;;;5067363;28;20481;-62
2022/05/24 13:01:42;;;;;;;9.95;0.70;;;;;;;;;;5067952;28;20044;-62
2022/05/24 13:04:16;;;;;;;0.90;0.45;;;;;;;;;;5066363;28;20039;-62
2022/05/24 13:06:43;;;;;;;4.13;0.57;;;;;;;;;;5045649;28;20037;-62
2022/05/24 13:09:28;;;;;;;1.77;0.43;;;;;;;;;;5059377;28;20020;-62
2022/05/24 13:12:00;;;;;;;3.33;0.50;;;;;;;;;;5062551;28;20114;-62
2022/05/24 13:14:51;;;;;;;4.43;0.50;;;;;;;;;;5071404;28;20407;-63
2022/05/24 13:17:20;;;;;;;3.33;0.70;;;;;;;;;;5060333;28;20027;-63
2022/05/24 13:20:07;;;;;;;0.75;0.60;;;;;;;;;;5064210;28;20033;-63
2022/05/24 13:22:46;;;;;;;3.63;0.57;;;;;;;;;;5064109;28;20486;-63
2022/05/24 13:25:26;;;;;;;3.58;0.50;;;;;;;;;;5064017;28;20583;-63
2022/05/24 13:28:01;;;;;;;0.95;0.35;;;;;;;;;;5056558;28;20108;-63
2022/05/24 13:33:35;;;;;;;6.18;0.57;;;;;;;;;;5062879;28;20029;-63
2022/05/24 13:36:03;;;;;;;3.53;0.60;;;;;;;;;;5065861;28;20070;-62
2022/05/24 13:38:29;;;;;;;4.28;0.50;;;;;;;;;;5062459;28;20090;-62
2022/05/24 13:40:56;;;;;;;2.08;0.43;;;;;;;;;;5058366;28;20470;-63
2022/05/24 13:43:37;;;;;;;1.23;0.40;;;;;;;;;;5075279;28;20027;-63
2022/05/24 13:46:13;;;;;;;3.35;0.60;;;;;;;;;;5058529;28;20542;-62
2022/05/24 13:49:01;;;;;;;1.33;0.70;;;;;;;;;;5063213;28;20029;-63
2022/05/24 13:51:30;;;;;;;1.48;0.77;;;;;;;;;;5059003;28;20037;-62
2022/05/24 13:53:56;;;;;;;2.03;0.57;;;;;;;;;;5059498;28;20042;-62
2022/05/24 13:56:37;;;;;;;1.55;0.40;;;;;;;;;;5063116;28;20039;-63
2022/05/24 13:59:23;;;;;;;1.58;0.65;;;;;;;;;;5059173;28;20043;-63
2022/05/24 14:01:55;;;;;;;1.35;0.70;;;;;;;;;;5054155;28;20047;-63
2022/05/24 14:04:28;;;;;;;2.13;0.52;;;;;;;;;;5050348;28;20032;-63
2022/05/24 14:06:57;;;;;;;1.50;0.43;;;;;;;;;;5066653;28;20040;-63
2022/05/24 14:09:26;;;;;;;4.67;0.53;;;;;;;;;;5058564;28;20091;-63
2022/05/24 14:11:57;;;;;;;0.65;0.60;;;;;;;;;;5060038;28;20712;-63
2022/05/24 14:14:24;;;;;;;0.45;0.40;;;;;;;;;;5058469;28;20070;-63
2022/05/24 14:16:52;;;;;;;4.30;0.70;;;;;;;;;;5056847;28;20397;-62
2022/05/24 14:19:19;;;;;;;2.58;0.60;;;;;;;;;;5062122;28;20802;-62
2022/05/24 14:21:45;;;;;;;0.40;0.40;;;;;;;;;;5065304;28;20484;-62
2022/05/24 14:24:16;;;;;;;2.97;0.77;;;;;;;;;;5061886;28;20119;-62
2022/05/24 14:26:43;;;;;;;1.50;0.68;;;;;;;;;;5061055;28;20037;-62
2022/05/24 14:29:10;;;;;;;7.53;0.90;;;;;;;;;;5060616;28;20473;-63
2022/05/24 14:31:37;;;;;;;2.35;0.50;;;;;;;;;;5056247;28;20040;-63
2022/05/24 14:34:04;;;;;;;1.23;0.65;;;;;;;;;;5067450;28;20043;-63
2022/05/24 14:36:32;;;;;;;0.95;0.70;;;;;;;;;;5059763;28;20036;-63
2022/05/24 14:38:59;;;;;;;4.93;0.52;;;;;;;;;;5055146;28;20032;-62
2022/05/24 14:41:25;;;;;;;4.38;0.52;;;;;;;;;;5067773;28;20336;-62
2022/05/24 14:44:00;;;;;;;2.60;0.70;;;;;;;;;;5057599;28;20031;-63
2022/05/24 14:46:31;;;;;;;0.80;0.50;;;;;;;;;;5065765;28;20028;-63
2022/05/24 14:48:58;;;;;;;6.25;0.90;;;;;;;;;;5057165;28;20119;-63
2022/05/24 14:51:30;;;;;;;3.17;0.88;;;;;;;;;;5065896;28;20040;-64
2022/05/24 14:53:58;;;;;;;4.07;1.00;;;;;;;;;;5065519;28;20469;-62
2022/05/24 14:56:24;;;;;;;7.03;1.23;;;;;;;;;;5056853;28;20029;-63
2022/05/24 14:58:50;;;;;;;5.75;0.80;;;;;;;;;;5059015;28;20033;-63
2022/05/24 15:01:16;;;;;;;12.23;0.98;;;;;;;;;;5052462;28;20037;-64
2022/05/24 15:03:41;;;;;;;5.32;0.90;;;;;;;;;;5059462;28;20048;-64
2022/05/24 15:06:07;;;;;;;8.73;2.10;;;;;;;;;;5056323;28;20039;-63
2022/05/24 15:16:49;;;;;;;3.40;0.77;;;;;;;;;;5061772;28;20039;-62
2022/05/24 15:19:18;;;;;;;2.50;0.95;;;;;;;;;;5067304;28;20028;-63
2022/05/24 15:21:47;;;;;;;0.93;0.70;;;;;;;;;;5053280;28;22469;-62
2022/05/24 15:24:18;;;;;;;1.55;0.70;;;;;;;;;;5063562;28;20524;-63
2022/05/24 15:26:49;;;;;;;4.07;0.80;;;;;;;;;;5059274;28;20553;-62
2022/05/24 15:29:15;;;;;;;;;;;;;;;;;;5062136;28;20105;-63
2022/05/24 15:31:43;;;;;;;2.25;0.85;;;;;;;;;;5060159;28;19928;-63
2022/05/24 15:34:09;;;;;;;3.65;0.90;;;;;;;;;;5056772;28;20028;-63
2022/05/24 15:36:35;;;;;;;6.13;0.90;;;;;;;;;;5058709;28;20111;-63
2022/05/24 15:39:02;;;;;;;3.50;0.65;;;;;;;;;;5061838;28;20585;-63
2022/05/24 15:41:27;;;;;;;1.38;0.77;;;;;;;;;;5058616;28;20110;-63
2022/05/24 15:43:53;;;;;;;2.38;1.00;;;;;;;;;;5059622;28;20072;-63
2022/05/24 15:46:19;;;;;;;1.15;0.85;;;;;;;;;;5061600;28;20111;-63
2022/05/24 15:48:45;;;;;;;2.35;0.80;;;;;;;;;;5061634;28;20027;-62
2022/05/24 15:51:12;;;;;;;3.83;1.00;;;;;;;;;;5059805;28;20029;-63
2022/05/24 15:53:38;;;;;;;1.13;0.80;;;;;;;;;;5057850;28;20124;-62
2022/05/24 15:56:06;;;;;;;5.35;0.98;;;;;;;;;;5056092;28;20171;-62
2022/05/24 15:58:33;;;;;;;4.20;0.77;;;;;;;;;;5054817;28;20043;-62
2022/05/24 16:00:59;;;;;;;5.57;0.80;;;;;;;;;;5061185;28;20033;-62
2022/05/24 16:03:25;;;;;;;5.07;0.90;;;;;;;;;;5057910;28;20040;-63
2022/05/24 16:11:23;;;;;;;7.10;0.70;;;;;;;;;;5066015;28;20453;-62